Kaunas, Lithuania

9:34 PM EEST on March 29, 2017 (GMT +0300)
Kaunas | | Change Station

Elev 0 ft 54.94 °N, 23.86 °E | Updated 19 minutes ago

Overcast
Overcast
36.9 °F
Feels Like 33 °F
N
4.3
Wind Variable Wind from NE
Gusts 8.1 mph

Today
High -- | Low -- °F
--% Chance of Precip.
Yesterday
High -- | Low -- °F
Precip. -- in
Pressure 29.95 in
Visibility 6.2 miles
Clouds Mostly Cloudy 4800 ft
Overcast 5300 ft
Windchill 33 °F
Dew Point 25 °F
Humidity 63%
Rainfall 0.06 in
Snow Depth Not available.
7:03 AM 7:55 PM
Waxing Crescent, 4% visible
METAR EYKA 291820Z 03006KT 350V060 9999 BKN048 OVC053 03/M06 Q1014 R08/0///95
Pressure 29.95 in
Visibility 6.2 miles
Clouds Mostly Cloudy 4800 ft
Overcast 5300 ft
Windchill 33 °F
Dew Point 25 °F
Humidity 63%
Rainfall 0.06 in
Snow Depth Not available.
7:03 AM 7:55 PM
Waxing Crescent, 4% visible
METAR EYKA 291820Z 03006KT 350V060 9999 BKN048 OVC053 03/M06 Q1014 R08/0///95

Get Severe Weather Alerts

Thanks for signing up!

Be on the lookout for a verification email in your inbox.

You'll start receiving the daily forecast at 8 AM.

×

10-Day Weather Forecast

×

Almanac

Astronomy

Mar. 29, 2017 Rise Set
Actual Time
Civil Twilight
Nautical Twilight
Astronomical Twilight
Moon
Length of Visible Light
Length of Day
Tomorrow will be .
, % of the Moon is Illuminated

Today's Extremes

Country Highs Country Lows

Community

WunderPhotos

Upload Photos

1,962,540 photos uploaded!

WunderBlog® & News

Nearby

Air Quality

  Air Quality AQ Index Pollutant
Not available.

Snow Depth

Station Depth Elevation

Earthquake Activity

City Distance Mag. Time & Date
Minimum magnitude displayed is 2.5.

Earthquake Activity

City Distance Mag. Time & Date
Minimum magnitude displayed is 2.5.

Coastal Water Temperatures

Place Temperature

Stations

Nearby Weather Stations

Station Location Temp. Windchill Dew Point Humidity Wind Precip. Elev Updated Type